createdAt,value
2022-10-09T00:01:19.481Z,75.83
2022-10-09T00:03:47.937Z,75.97
2022-10-09T00:06:17.220Z,75.97
2022-10-09T00:08:44.331Z,76.63
2022-10-09T00:11:16.517Z,76.92
2022-10-09T00:13:43.423Z,76.66
2022-10-09T00:16:12.807Z,76.61
2022-10-09T00:18:39.858Z,76.73
2022-10-09T00:21:14.191Z,76.71
2022-10-09T00:23:41.031Z,76.51
2022-10-09T00:26:08.545Z,76.65
2022-10-09T00:28:38.484Z,76.95
2022-10-09T00:31:09.585Z,76.79
2022-10-09T00:33:37.187Z,76.66
2022-10-09T00:36:10.384Z,76.88
2022-10-09T00:38:36.904Z,76.98
2022-10-09T00:41:03.609Z,76.71
2022-10-09T00:43:52.287Z,76.54
2022-10-09T00:46:25.664Z,76.36
2022-10-09T00:49:02.991Z,76.27
2022-10-09T00:51:30.381Z,76.51
2022-10-09T00:53:57.219Z,76.85
2022-10-09T00:56:24.961Z,77.10
2022-10-09T00:58:53.919Z,76.98
2022-10-09T01:01:21.091Z,77.15
2022-10-09T01:03:47.822Z,77.25
2022-10-09T01:06:23.013Z,77.11
2022-10-09T01:09:08.713Z,77.03
2022-10-09T01:11:57.317Z,76.86
2022-10-09T01:14:29.662Z,76.90
2022-10-09T01:17:08.371Z,76.82
2022-10-09T01:19:44.981Z,76.99
2022-10-09T01:22:29.908Z,76.79
2022-10-09T01:25:11.670Z,76.86
2022-10-09T01:27:38.809Z,76.74
2022-10-09T01:30:08.568Z,76.77
2022-10-09T01:32:38.230Z,76.81
2022-10-09T01:35:06.382Z,76.90
2022-10-09T01:37:34.231Z,77.24
2022-10-09T01:40:01.143Z,77.13
2022-10-09T01:42:29.030Z,77.03
2022-10-09T01:44:55.721Z,76.94
2022-10-09T01:47:22.826Z,76.82
2022-10-09T01:50:01.899Z,77.04
2022-10-09T01:52:31.977Z,76.71
2022-10-09T01:55:01.440Z,76.79
2022-10-09T01:57:46.674Z,76.72
2022-10-09T02:00:14.149Z,76.72
2022-10-09T02:02:42.251Z,76.89
2022-10-09T02:05:15.693Z,76.86
2022-10-09T02:07:42.425Z,77.12
2022-10-09T02:10:09.975Z,76.88
2022-10-09T02:12:44.380Z,77.00
2022-10-09T02:15:11.549Z,76.94
2022-10-09T02:17:44.219Z,77.33
2022-10-09T02:20:15.698Z,77.56
2022-10-09T02:22:42.435Z,77.62
2022-10-09T02:25:09.595Z,77.58
2022-10-09T02:27:36.341Z,77.71
2022-10-09T02:30:04.779Z,77.53
2022-10-09T02:32:31.396Z,77.70
2022-10-09T02:34:58.036Z,77.84
2022-10-09T02:37:24.678Z,77.66
2022-10-09T02:39:51.426Z,77.79
2022-10-09T02:42:18.238Z,77.56
2022-10-09T02:44:44.944Z,77.72
2022-10-09T02:47:11.649Z,77.74
2022-10-09T02:49:38.296Z,77.64
2022-10-09T02:52:05.624Z,77.78
2022-10-09T02:54:32.354Z,77.86
2022-10-09T02:56:59.021Z,77.82
2022-10-09T02:59:26.261Z,77.52
2022-10-09T03:01:53.018Z,77.64
2022-10-09T03:04:19.790Z,77.34
2022-10-09T03:06:46.450Z,77.39
2022-10-09T03:09:13.076Z,77.40
2022-10-09T03:11:39.763Z,77.27
2022-10-09T03:14:06.496Z,77.35
2022-10-09T03:16:33.192Z,77.74
2022-10-09T03:19:00.215Z,77.55
2022-10-09T03:21:28.297Z,77.54
2022-10-09T03:23:55.532Z,77.72
2022-10-09T03:26:24.779Z,77.53
2022-10-09T03:28:52.647Z,77.82
2022-10-09T03:31:50.567Z,77.69
2022-10-09T03:34:07.772Z,77.69
2022-10-09T03:36:34.515Z,77.84
2022-10-09T03:39:01.161Z,77.65
2022-10-09T03:41:27.844Z,77.61
2022-10-09T03:43:54.823Z,77.76
2022-10-09T03:46:22.000Z,77.76
2022-10-09T03:48:48.733Z,77.63
2022-10-09T03:51:15.400Z,77.54
2022-10-09T03:53:42.034Z,77.59
2022-10-09T03:56:08.775Z,77.54
2022-10-09T03:58:35.376Z,77.40
2022-10-09T04:01:02.037Z,77.62
2022-10-09T04:03:29.044Z,77.67
2022-10-09T04:05:55.686Z,77.58
2022-10-09T04:08:22.497Z,77.73
2022-10-09T04:10:49.253Z,78.07
2022-10-09T04:13:15.952Z,78.27
2022-10-09T04:15:50.129Z,77.88
2022-10-09T04:18:16.979Z,77.86
2022-10-09T04:20:54.045Z,77.76
2022-10-09T04:23:21.706Z,77.92
2022-10-09T04:25:48.860Z,77.85
2022-10-09T04:28:15.528Z,77.90
2022-10-09T04:30:42.205Z,77.74
2022-10-09T04:33:12.771Z,77.56
2022-10-09T04:35:46.779Z,77.65
2022-10-09T04:38:13.347Z,77.78
2022-10-09T04:40:40.028Z,77.85
2022-10-09T04:43:06.871Z,77.68
2022-10-09T04:45:33.809Z,77.58
2022-10-09T04:48:00.534Z,77.74
2022-10-09T04:50:27.225Z,77.81
2022-10-09T04:52:59.642Z,77.67
2022-10-09T04:55:26.388Z,77.72
2022-10-09T04:57:53.021Z,77.69
2022-10-09T05:00:19.764Z,77.76
2022-10-09T05:02:46.818Z,77.34
2022-10-09T05:05:13.995Z,77.26
2022-10-09T05:07:41.031Z,77.34
2022-10-09T05:10:08.558Z,77.14
2022-10-09T05:12:35.408Z,77.14
2022-10-09T05:15:02.133Z,77.07
2022-10-09T05:17:28.916Z,77.26
2022-10-09T05:19:55.605Z,77.07
2022-10-09T05:22:22.563Z,77.09
2022-10-09T05:24:49.327Z,77.06
2022-10-09T05:27:16.005Z,77.04
2022-10-09T05:29:43.288Z,77.20
2022-10-09T05:32:10.062Z,77.33
2022-10-09T05:34:36.739Z,77.21
2022-10-09T05:37:03.485Z,77.14
2022-10-09T05:39:30.208Z,77.36
2022-10-09T05:41:56.904Z,77.35
2022-10-09T05:44:24.163Z,77.74
2022-10-09T05:46:50.827Z,77.71
2022-10-09T05:49:17.567Z,77.54
2022-10-09T05:51:44.291Z,77.40
2022-10-09T05:54:15.678Z,77.65
2022-10-09T05:56:43.638Z,77.71
2022-10-09T05:59:14.881Z,77.82
2022-10-09T06:01:43.761Z,77.53
2022-10-09T06:04:16.176Z,77.36
2022-10-09T06:06:43.718Z,77.52
2022-10-09T06:09:12.331Z,77.57
2022-10-09T06:11:40.552Z,77.69
2022-10-09T06:14:09.659Z,78.04
2022-10-09T06:16:38.456Z,77.93
2022-10-09T06:19:07.599Z,77.92
2022-10-09T06:21:40.625Z,78.05
2022-10-09T06:24:07.428Z,78.02
2022-10-09T06:26:34.775Z,77.85
2022-10-09T06:29:02.361Z,77.79
2022-10-09T06:31:31.494Z,77.62
2022-10-09T06:34:03.250Z,77.58
2022-10-09T06:36:32.160Z,77.32
2022-10-09T06:38:59.987Z,77.05
2022-10-09T06:41:28.289Z,76.86
2022-10-09T06:44:16.559Z,76.55
2022-10-09T06:46:44.880Z,76.64
2022-10-09T06:49:17.673Z,76.50
2022-10-09T06:51:48.112Z,76.59
2022-10-09T06:54:16.756Z,76.71
2022-10-09T06:56:47.260Z,76.63
2022-10-09T06:59:14.323Z,76.95
2022-10-09T07:01:41.033Z,76.99
2022-10-09T07:04:12.819Z,76.81
2022-10-09T07:06:44.787Z,76.75
2022-10-09T07:09:13.457Z,76.66
2022-10-09T07:11:43.361Z,76.55
2022-10-09T07:14:11.548Z,76.44
2022-10-09T07:16:41.477Z,76.25
2022-10-09T07:19:11.192Z,76.07
2022-10-09T07:21:40.048Z,75.98
2022-10-09T07:24:07.477Z,75.19
2022-10-09T07:26:35.982Z,75.37
2022-10-09T07:29:02.736Z,74.80
2022-10-09T07:31:29.386Z,74.39
2022-10-09T07:33:57.159Z,73.95
2022-10-09T07:36:23.989Z,74.00
2022-10-09T07:38:54.570Z,73.95
2022-10-09T07:41:22.498Z,73.41
2022-10-09T07:43:49.539Z,73.10
2022-10-09T07:46:18.768Z,72.69
2022-10-09T07:48:46.228Z,72.97
2022-10-09T07:51:17.402Z,72.92
2022-10-09T07:53:44.933Z,72.18
2022-10-09T07:56:15.948Z,72.03
2022-10-09T07:58:43.325Z,71.95
2022-10-09T08:01:10.525Z,72.06
2022-10-09T08:03:37.355Z,72.41
2022-10-09T08:06:04.704Z,73.42
2022-10-09T08:08:31.316Z,72.90
2022-10-09T08:10:57.965Z,72.81
2022-10-09T08:13:24.711Z,72.01
2022-10-09T08:15:51.625Z,71.35
2022-10-09T08:18:18.265Z,70.87
2022-10-09T08:20:45.224Z,69.64
2022-10-09T08:23:11.872Z,69.07
2022-10-09T08:25:39.159Z,68.48
2022-10-09T08:28:05.817Z,68.59
2022-10-09T08:30:32.620Z,68.63
2022-10-09T08:32:59.253Z,68.26
2022-10-09T08:35:26.832Z,67.80
2022-10-09T08:37:53.560Z,67.24
2022-10-09T08:40:29.614Z,67.09
2022-10-09T08:43:07.228Z,67.08
2022-10-09T08:45:35.198Z,67.14
2022-10-09T08:48:06.556Z,68.26
2022-10-09T08:50:36.162Z,68.50
2022-10-09T08:53:14.033Z,68.07
2022-10-09T08:55:58.714Z,66.88
2022-10-09T08:58:29.758Z,66.98
2022-10-09T09:01:01.996Z,67.04
2022-10-09T09:03:57.023Z,67.18
2022-10-09T09:06:57.057Z,67.53
2022-10-09T09:09:35.711Z,67.52
2022-10-09T09:12:16.186Z,67.08
2022-10-09T09:15:05.563Z,66.34
2022-10-09T09:18:01.315Z,65.91
2022-10-09T09:20:37.154Z,65.42
2022-10-09T09:23:09.369Z,64.52
2022-10-09T09:25:37.968Z,64.40
2022-10-09T09:28:18.245Z,64.05
2022-10-09T09:30:49.233Z,63.43
2022-10-09T09:33:23.201Z,63.10
2022-10-09T09:35:55.899Z,62.79
2022-10-09T09:38:23.083Z,61.02
2022-10-09T09:40:51.210Z,61.89
2022-10-09T09:43:21.314Z,61.62
2022-10-09T09:45:49.228Z,60.61
2022-10-09T09:48:37.674Z,61.01
2022-10-09T09:51:26.703Z,59.81
2022-10-09T09:54:17.029Z,59.67
2022-10-09T09:59:40.138Z,57.56
2022-10-09T10:02:06.807Z,57.06
2022-10-09T10:04:33.512Z,57.31
2022-10-09T10:07:00.239Z,57.19
2022-10-09T10:09:27.243Z,55.38
2022-10-09T10:11:59.453Z,56.74
2022-10-09T10:14:27.093Z,57.19
2022-10-09T10:16:55.909Z,56.50
2022-10-09T10:19:25.232Z,57.08
2022-10-09T10:22:03.464Z,57.50
2022-10-09T10:24:45.061Z,57.44
2022-10-09T10:27:21.890Z,56.40
2022-10-09T10:29:49.788Z,54.22
2022-10-09T10:32:39.209Z,53.36
2022-10-09T10:35:11.009Z,56.29
2022-10-09T10:37:49.886Z,55.66
2022-10-09T10:40:31.795Z,55.00
2022-10-09T10:43:10.658Z,53.67
2022-10-09T10:45:43.160Z,54.53
2022-10-09T10:48:10.653Z,51.49
2022-10-09T10:50:53.738Z,54.32
2022-10-09T10:53:23.815Z,53.55
2022-10-09T10:55:55.846Z,54.50
2022-10-09T10:58:40.871Z,54.15
2022-10-09T11:01:32.680Z,53.66
2022-10-09T11:04:23.686Z,52.58
2022-10-09T11:07:14.659Z,54.61
2022-10-09T11:09:58.656Z,53.83
2022-10-09T11:12:48.126Z,53.36
2022-10-09T11:15:38.618Z,53.82
2022-10-09T11:18:21.856Z,54.31
2022-10-09T11:20:54.486Z,54.28
2022-10-09T11:23:39.657Z,52.13
2022-10-09T11:26:31.119Z,52.21
2022-10-09T11:29:18.065Z,52.25
2022-10-09T11:31:55.555Z,53.06
2022-10-09T11:34:30.628Z,53.43
2022-10-09T11:36:59.029Z,53.45
2022-10-09T11:39:27.314Z,54.12
2022-10-09T11:41:55.009Z,53.93
2022-10-09T11:44:52.029Z,54.61
2022-10-09T11:47:25.231Z,53.44
2022-10-09T11:50:31.064Z,53.79
2022-10-09T11:52:58.864Z,54.78
2022-10-09T11:55:27.975Z,53.58
2022-10-09T11:57:55.119Z,54.33
2022-10-09T12:00:34.263Z,54.18
2022-10-09T12:03:03.720Z,54.08
2022-10-09T12:05:45.548Z,52.82
2022-10-09T12:08:32.448Z,53.37
2022-10-09T12:11:15.288Z,54.14
2022-10-09T12:13:45.078Z,52.30
2022-10-09T12:16:49.913Z,52.95
2022-10-09T12:19:19.641Z,52.63
2022-10-09T12:22:08.165Z,49.58
2022-10-09T12:24:40.730Z,50.53
2022-10-09T12:27:07.302Z,53.17
2022-10-09T12:29:40.927Z,52.01
2022-10-09T12:32:18.785Z,52.34
2022-10-09T12:34:50.474Z,51.63
2022-10-09T12:37:22.484Z,52.29
2022-10-09T12:39:49.813Z,52.70
2022-10-09T12:42:22.064Z,52.25
2022-10-09T12:44:50.285Z,50.77
2022-10-09T12:47:28.356Z,51.51
2022-10-09T12:50:16.105Z,52.35
2022-10-09T12:52:56.756Z,52.28
2022-10-09T12:55:42.657Z,51.45
2022-10-09T12:58:16.909Z,50.54
2022-10-09T13:00:43.924Z,52.13
2022-10-09T13:03:23.566Z,51.82
2022-10-09T13:05:50.604Z,51.69
2022-10-09T13:08:24.601Z,51.18
2022-10-09T13:10:51.971Z,51.94
2022-10-09T13:13:26.233Z,51.33
2022-10-09T13:16:01.450Z,52.08
2022-10-09T13:18:28.212Z,52.07
2022-10-09T13:21:04.859Z,49.36
2022-10-09T13:23:33.691Z,49.14
2022-10-09T13:26:03.568Z,52.13
2022-10-09T13:28:30.718Z,51.33
2022-10-09T13:31:06.324Z,51.30
2022-10-09T13:33:32.971Z,50.36
2022-10-09T13:35:59.595Z,49.74
2022-10-09T13:38:26.278Z,49.44
2022-10-09T13:40:52.999Z,50.87
2022-10-09T13:43:26.125Z,50.10
2022-10-09T13:45:53.715Z,50.15
2022-10-09T13:48:20.332Z,51.30
2022-10-09T13:50:47.024Z,51.90
2022-10-09T13:53:13.953Z,50.69
2022-10-09T13:55:40.667Z,51.29
2022-10-09T13:58:07.361Z,52.85
2022-10-09T14:00:34.262Z,51.00
2022-10-09T14:03:00.906Z,49.14
2022-10-09T14:05:27.620Z,49.43
2022-10-09T14:07:54.744Z,50.86
2022-10-09T14:10:23.893Z,51.30
2022-10-09T14:12:51.788Z,52.86
2022-10-09T14:15:18.826Z,49.88
2022-10-09T14:17:45.581Z,50.35
2022-10-09T14:20:12.651Z,50.53
2022-10-09T14:22:39.313Z,52.70
2022-10-09T14:25:06.399Z,51.49
2022-10-09T14:30:19.589Z,50.26
2022-10-09T14:32:46.427Z,50.65
2022-10-09T14:35:16.966Z,51.57
2022-10-09T14:37:45.915Z,51.02
2022-10-09T14:40:12.786Z,53.13
2022-10-09T14:42:39.979Z,52.46
2022-10-09T14:45:07.696Z,53.55
2022-10-09T14:47:34.346Z,53.71
2022-10-09T14:50:01.200Z,52.02
2022-10-09T14:52:27.932Z,52.40
2022-10-09T14:54:54.575Z,53.49
2022-10-09T14:57:22.014Z,51.69
2022-10-09T14:59:48.706Z,52.07
2022-10-09T15:02:16.367Z,51.86
2022-10-09T15:04:43.065Z,51.32
2022-10-09T15:07:09.795Z,54.09
2022-10-09T15:09:36.436Z,54.06
2022-10-09T15:12:03.121Z,51.86
2022-10-09T15:14:29.732Z,53.93
2022-10-09T15:16:56.324Z,52.80
2022-10-09T15:19:23.024Z,53.58
2022-10-09T15:21:49.656Z,53.46
2022-10-09T15:24:16.266Z,54.65
2022-10-09T15:26:42.875Z,54.72
2022-10-09T15:29:09.567Z,54.16
2022-10-09T15:31:38.745Z,53.93
2022-10-09T15:34:06.439Z,54.49
2022-10-09T15:36:38.095Z,55.49
2022-10-09T15:39:07.287Z,54.54
2022-10-09T15:41:36.905Z,54.69
2022-10-09T15:44:06.190Z,56.00
2022-10-09T15:46:32.953Z,56.19
2022-10-09T15:48:59.747Z,56.35
2022-10-09T15:51:26.685Z,55.85
2022-10-09T15:53:53.369Z,56.88
2022-10-09T15:56:22.860Z,56.40
2022-10-09T15:58:50.709Z,56.59
2022-10-09T16:01:18.053Z,56.71
2022-10-09T16:03:45.130Z,57.81
2022-10-09T16:06:15.496Z,58.50
2022-10-09T16:08:42.387Z,59.35
2022-10-09T16:11:11.768Z,60.01
2022-10-09T16:13:40.748Z,60.42
2022-10-09T16:16:09.643Z,61.08
2022-10-09T16:18:36.505Z,60.96
2022-10-09T16:21:07.650Z,61.10
2022-10-09T16:23:34.833Z,61.43
2022-10-09T16:26:04.948Z,61.44
2022-10-09T16:28:32.720Z,61.80
2022-10-09T16:31:02.520Z,61.75
2022-10-09T16:33:29.180Z,61.98
2022-10-09T16:36:06.738Z,62.35
2022-10-09T16:38:33.458Z,62.73
2022-10-09T16:41:02.469Z,62.62
2022-10-09T16:43:29.443Z,63.19
2022-10-09T16:45:56.061Z,63.53
2022-10-09T16:48:22.798Z,63.32
2022-10-09T16:50:49.751Z,63.67
2022-10-09T16:53:16.568Z,63.59
2022-10-09T16:55:43.244Z,63.66
2022-10-09T16:58:09.889Z,63.53
2022-10-09T17:00:36.656Z,63.89
2022-10-09T17:03:03.929Z,64.32
2022-10-09T17:05:30.609Z,64.07
2022-10-09T17:07:57.381Z,64.08
2022-10-09T17:10:26.898Z,64.44
2022-10-09T17:12:53.513Z,64.80
2022-10-09T17:15:20.157Z,65.15
2022-10-09T17:17:47.184Z,65.48
2022-10-09T17:20:13.986Z,65.33
2022-10-09T17:22:40.606Z,65.37
2022-10-09T17:25:07.570Z,65.51
2022-10-09T17:27:34.174Z,65.74
2022-10-09T17:30:00.803Z,66.05
2022-10-09T17:32:27.469Z,65.48
2022-10-09T17:34:54.129Z,65.86
2022-10-09T17:37:20.841Z,65.92
2022-10-09T17:39:51.875Z,65.76
2022-10-09T17:42:18.938Z,66.02
2022-10-09T17:44:45.583Z,66.16
2022-10-09T17:47:12.259Z,66.38
2022-10-09T17:49:38.842Z,66.29
2022-10-09T17:52:05.511Z,66.37
2022-10-09T17:54:32.186Z,66.01
2022-10-09T17:57:00.356Z,66.38
2022-10-09T17:59:27.386Z,65.83
2022-10-09T18:01:53.945Z,66.07
2022-10-09T18:04:20.632Z,66.61
2022-10-09T18:06:47.255Z,66.51
2022-10-09T18:09:13.995Z,66.92
2022-10-09T18:11:40.719Z,66.83
2022-10-09T18:14:07.585Z,67.26
2022-10-09T18:16:37.847Z,67.37
2022-10-09T18:19:12.285Z,67.22
2022-10-09T18:21:43.687Z,67.28
2022-10-09T18:24:10.827Z,67.11
2022-10-09T18:26:37.551Z,67.12
2022-10-09T18:29:05.467Z,67.15
2022-10-09T18:31:32.327Z,66.96
2022-10-09T18:33:59.566Z,67.32
2022-10-09T18:36:31.369Z,67.14
2022-10-09T18:39:04.494Z,67.21
2022-10-09T18:41:31.310Z,67.14
2022-10-09T18:44:00.084Z,67.46
2022-10-09T18:46:27.621Z,67.42
2022-10-09T18:48:54.912Z,67.77
2022-10-09T18:51:23.856Z,67.80
2022-10-09T18:53:53.095Z,67.62
2022-10-09T18:56:21.107Z,67.92
2022-10-09T18:58:49.627Z,68.14
2022-10-09T19:01:16.311Z,68.48
2022-10-09T19:03:46.049Z,68.77
2022-10-09T19:06:15.916Z,68.99
2022-10-09T19:08:43.688Z,69.29
2022-10-09T19:11:10.443Z,69.15
2022-10-09T19:13:37.132Z,69.24
2022-10-09T19:16:05.705Z,69.27
2022-10-09T19:18:34.620Z,69.47
2022-10-09T19:21:01.863Z,69.69
2022-10-09T19:23:28.687Z,69.48
2022-10-09T19:25:57.111Z,69.55
2022-10-09T19:28:25.778Z,69.75
2022-10-09T19:30:52.762Z,69.97
2022-10-09T19:33:19.543Z,69.80
2022-10-09T19:35:50.440Z,69.93
2022-10-09T19:38:17.778Z,70.04
2022-10-09T19:40:45.296Z,69.88
2022-10-09T19:43:12.972Z,70.07
2022-10-09T19:45:39.724Z,70.20
2022-10-09T19:48:06.855Z,70.28
2022-10-09T19:50:33.685Z,70.16
2022-10-09T19:53:03.299Z,70.20
2022-10-09T19:55:33.342Z,70.19
2022-10-09T19:58:00.627Z,70.22
2022-10-09T20:00:28.340Z,70.11
2022-10-09T20:02:55.055Z,70.31
2022-10-09T20:05:23.041Z,70.64
2022-10-09T20:07:50.220Z,70.83
2022-10-09T20:10:17.070Z,70.86
2022-10-09T20:12:43.764Z,70.94
2022-10-09T20:15:10.668Z,71.23
2022-10-09T20:17:37.400Z,71.23
2022-10-09T20:20:05.311Z,71.20
2022-10-09T20:22:32.143Z,70.88
2022-10-09T20:24:58.882Z,71.05
2022-10-09T20:27:25.574Z,70.87
2022-10-09T20:29:53.053Z,71.15
2022-10-09T20:32:19.807Z,71.12
2022-10-09T20:34:46.479Z,71.07
2022-10-09T20:37:13.167Z,71.10
2022-10-09T20:39:39.840Z,71.27
2022-10-09T20:42:06.628Z,71.16
2022-10-09T20:44:33.367Z,71.37
2022-10-09T20:47:00.017Z,71.46
2022-10-09T20:49:26.943Z,71.66
2022-10-09T20:51:53.772Z,71.51
2022-10-09T20:54:21.826Z,71.63
2022-10-09T20:56:48.824Z,71.64
2022-10-09T20:59:16.484Z,71.44
2022-10-09T21:01:43.101Z,71.06
2022-10-09T21:04:11.228Z,70.82
2022-10-09T21:06:38.259Z,70.60
2022-10-09T21:09:05.174Z,70.69
2022-10-09T21:11:34.511Z,70.67
2022-10-09T21:14:02.279Z,70.75
2022-10-09T21:16:29.077Z,70.44
2022-10-09T21:18:58.150Z,70.28
2022-10-09T21:21:25.525Z,70.37
2022-10-09T21:23:53.627Z,70.10
2022-10-09T21:26:21.391Z,69.93
2022-10-09T21:28:48.403Z,69.79
2022-10-09T21:31:20.360Z,69.92
2022-10-09T21:33:47.617Z,69.46
2022-10-09T21:36:56.251Z,69.38
2022-10-09T21:39:28.903Z,69.53
2022-10-09T21:41:55.545Z,69.19
2022-10-09T21:44:22.240Z,69.33
2022-10-09T21:46:48.921Z,69.24
2022-10-09T21:49:21.403Z,69.54
2022-10-09T21:51:48.172Z,69.40
2022-10-09T21:54:15.472Z,69.71
2022-10-09T21:56:42.153Z,69.64
2022-10-09T21:59:09.037Z,69.81
2022-10-09T22:01:35.994Z,70.13
2022-10-09T22:04:02.747Z,70.29
2022-10-09T22:06:29.411Z,70.39
2022-10-09T22:08:56.082Z,70.24
2022-10-09T22:11:22.744Z,70.20
2022-10-09T22:13:49.995Z,70.16
2022-10-09T22:16:16.713Z,70.10
2022-10-09T22:18:43.534Z,70.15
2022-10-09T22:21:13.066Z,70.36
2022-10-09T22:23:39.810Z,70.16
2022-10-09T22:26:10.153Z,70.17
2022-10-09T22:28:36.912Z,70.23
2022-10-09T22:31:07.803Z,70.18
2022-10-09T22:33:35.843Z,70.07
2022-10-09T22:36:13.759Z,70.02
2022-10-09T22:38:41.160Z,70.48
2022-10-09T22:41:09.098Z,70.65
2022-10-09T22:43:36.293Z,70.51
2022-10-09T22:46:11.014Z,70.71
2022-10-09T22:48:38.199Z,70.87
2022-10-09T22:51:06.443Z,70.90
2022-10-09T22:53:33.984Z,71.06
2022-10-09T22:56:00.785Z,71.05
2022-10-09T22:58:27.490Z,71.25
2022-10-09T23:00:54.129Z,71.15
2022-10-09T23:03:20.908Z,71.13
2022-10-09T23:05:47.576Z,71.74
2022-10-09T23:08:14.256Z,71.73
2022-10-09T23:10:41.087Z,71.79
2022-10-09T23:13:07.890Z,72.00
2022-10-09T23:15:36.210Z,72.17
2022-10-09T23:18:04.556Z,72.29
2022-10-09T23:20:32.091Z,72.27
2022-10-09T23:22:58.815Z,72.49
2022-10-09T23:25:25.575Z,72.67
2022-10-09T23:27:52.237Z,72.52
2022-10-09T23:30:18.852Z,72.48
2022-10-09T23:32:45.546Z,72.58
2022-10-09T23:35:12.258Z,72.53
2022-10-09T23:37:39.072Z,72.62
2022-10-09T23:40:06.119Z,72.75
2022-10-09T23:42:32.827Z,72.80
2022-10-09T23:44:59.516Z,72.88
2022-10-09T23:47:26.174Z,72.89
2022-10-09T23:49:52.904Z,72.91
2022-10-09T23:52:19.649Z,73.07
2022-10-09T23:54:46.344Z,73.11
2022-10-09T23:57:13.019Z,72.97
2022-10-09T23:59:39.626Z,73.08
